Brive-Souillac

LFSL · Corrèze, Nouvelle-Aquitaine, 法国

罗盘
风向 的 风向 340° Brive-Souillac 11/29
风: 4 kt, 2 beaufort

3 kt

3 kt
改变
0 1.000 2.000 3.000 4.000 5.000
OVC 4.000 ft
METAR LFSL 020300Z AUTO 34004KT 9999 OVC040 04/00 Q1018 NOSIG

METAR Brive-Souillac - LFSL/BVE

Brive-Souillac是,法国中的中型机场。 该机场有一条跑道: 11/29. 该领域的国际民航组织标志是LFSL 它的国际航空运输协会代码是BVE.

这份报告是针对2022年12月2日 04:00, 当地时间在Brive-Souillac进行的。

机场观察

风向为340°,速度为4 kt。

可见度为10 km 或者更多。

有乌云密布在4.000 ft的高度。 破损或更高的上限为4.000 ft。

温度为4 °C,阵风为1 °C。 海平面上的气压为1018 hPa (QNH)。

白天

今天,太阳从08:13升起,在17:13降落。 这适用于Brive-Souillac,世界夏令时可能有所不同。 当地时间与世界标准时间之间的时差为+1 小时。 当前,没有夏令时有效。

公司介绍

我们没有关于这个机场的公司信息。

体会

到Vliegles.nl去找飞行课程,跳伞和其他飞行体验。 浏览页面,了解Brive-Souillac附近所有可用的活动。 你也可以使用搜索功能来寻找你所在地附近的特定飞行课程、跳伞或其他飞行体验。

跑道

Id 标题 侧风 逆风 侧风 %
11/29 115°-295° 3 kt 3 kt 71 %

逆风成分最大的方向会被突出显示,并用于横风计算。 这并不一定意味着这个方向在使用。

乌云

4.000 ft OVC 乌云密布

温度 & 天气

温度 4 °C
露点 0 °C
相对湿度 75%
风寒 1 °C
Kp-index 0 (0-9)

白天

日出
08:13 (4:05)
中午
12:43
日落
17:13

小工具

你想在你的网站上有一个关于Brive-Souillac的当前航空天气(METAR)的小部件吗?

显示HTML代码

我们和第三方通过cookies跟踪您在我们网站上的互联网行为。如果你继续,我们认为你同意我们的饼干政策